sensor_id;sensor_type;location;lat;lon;timestamp;temperature;humidity
52471;DHT22;38382;53.160;7.026;2024-03-25T00:00:13;6.20;99.90
52471;DHT22;38382;53.160;7.026;2024-03-25T00:02:39;5.40;99.90
52471;DHT22;38382;53.160;7.026;2024-03-25T00:05:10;6.40;99.90
52471;DHT22;38382;53.160;7.026;2024-03-25T00:07:39;5.60;99.90
52471;DHT22;38382;53.160;7.026;2024-03-25T00:10:06;5.60;99.90
52471;DHT22;38382;53.160;7.026;2024-03-25T00:12:34;5.40;99.90
52471;DHT22;38382;53.160;7.026;2024-03-25T00:14:59;5.40;99.90
52471;DHT22;38382;53.160;7.026;2024-03-25T00:17:25;5.40;99.90
52471;DHT22;38382;53.160;7.026;2024-03-25T00:19:51;5.40;99.90
52471;DHT22;38382;53.160;7.026;2024-03-25T00:22:21;6.60;99.90
52471;DHT22;38382;53.160;7.026;2024-03-25T00:24:47;5.40;99.90
52471;DHT22;38382;53.160;7.026;2024-03-25T00:27:14;5.40;99.90
52471;DHT22;38382;53.160;7.026;2024-03-25T00:29:40;5.40;99.90
52471;DHT22;38382;53.160;7.026;2024-03-25T00:32:06;6.40;99.90
52471;DHT22;38382;53.160;7.026;2024-03-25T00:34:32;5.40;99.90
52471;DHT22;38382;53.160;7.026;2024-03-25T00:36:58;6.00;99.90
52471;DHT22;38382;53.160;7.026;2024-03-25T00:39:24;5.30;99.90
52471;DHT22;38382;53.160;7.026;2024-03-25T00:41:51;5.20;99.90
52471;DHT22;38382;53.160;7.026;2024-03-25T00:44:17;5.20;99.90
52471;DHT22;38382;53.160;7.026;2024-03-25T00:46:43;5.20;99.90
52471;DHT22;38382;53.160;7.026;2024-03-25T00:49:09;5.20;99.90
52471;DHT22;38382;53.160;7.026;2024-03-25T00:51:36;5.30;99.90
52471;DHT22;38382;53.160;7.026;2024-03-25T00:54:02;5.20;99.90
52471;DHT22;38382;53.160;7.026;2024-03-25T00:56:29;5.20;99.90
52471;DHT22;38382;53.160;7.026;2024-03-25T00:58:54;5.30;99.90
52471;DHT22;38382;53.160;7.026;2024-03-25T01:01:22;5.20;99.90
52471;DHT22;38382;53.160;7.026;2024-03-25T01:03:48;5.10;99.90
52471;DHT22;38382;53.160;7.026;2024-03-25T01:06:14;5.10;99.90
52471;DHT22;38382;53.160;7.026;2024-03-25T01:08:40;6.10;99.90
52471;DHT22;38382;53.160;7.026;2024-03-25T01:11:05;6.30;99.90
52471;DHT22;38382;53.160;7.026;2024-03-25T01:13:31;5.80;99.90
52471;DHT22;38382;53.160;7.026;2024-03-25T01:15:57;5.60;99.90
52471;DHT22;38382;53.160;7.026;2024-03-25T01:18:22;5.10;99.90
52471;DHT22;38382;53.160;7.026;2024-03-25T01:20:48;5.30;99.90
52471;DHT22;38382;53.160;7.026;2024-03-25T01:23:15;5.10;99.90
52471;DHT22;38382;53.160;7.026;2024-03-25T01:25:41;5.10;99.90
52471;DHT22;38382;53.160;7.026;2024-03-25T01:28:07;5.90;99.90
52471;DHT22;38382;53.160;7.026;2024-03-25T01:30:32;5.10;99.90
52471;DHT22;38382;53.160;7.026;2024-03-25T01:33:03;5.20;99.90
52471;DHT22;38382;53.160;7.026;2024-03-25T01:35:29;5.00;99.90
52471;DHT22;38382;53.160;7.026;2024-03-25T01:37:55;5.80;99.90
52471;DHT22;38382;53.160;7.026;2024-03-25T01:40:20;4.90;99.90
52471;DHT22;38382;53.160;7.026;2024-03-25T01:42:59;6.10;99.90
52471;DHT22;38382;53.160;7.026;2024-03-25T01:45:29;5.50;99.90
52471;DHT22;38382;53.160;7.026;2024-03-25T01:47:57;5.90;99.90
52471;DHT22;38382;53.160;7.026;2024-03-25T01:50:23;5.00;99.90
52471;DHT22;38382;53.160;7.026;2024-03-25T01:52:50;5.00;99.90
52471;DHT22;38382;53.160;7.026;2024-03-25T01:55:18;5.30;99.90
52471;DHT22;38382;53.160;7.026;2024-03-25T01:57:46;6.10;99.90
52471;DHT22;38382;53.160;7.026;2024-03-25T02:00:13;5.90;99.90
52471;DHT22;38382;53.160;7.026;2024-03-25T02:02:42;5.00;99.90
52471;DHT22;38382;53.160;7.026;2024-03-25T02:05:10;5.30;99.90
52471;DHT22;38382;53.160;7.026;2024-03-25T02:07:36;5.00;99.90
52471;DHT22;38382;53.160;7.026;2024-03-25T02:10:03;5.00;99.90
52471;DHT22;38382;53.160;7.026;2024-03-25T02:12:33;5.10;99.90
52471;DHT22;38382;53.160;7.026;2024-03-25T02:14:59;5.10;99.90
52471;DHT22;38382;53.160;7.026;2024-03-25T02:17:25;5.10;99.90
52471;DHT22;38382;53.160;7.026;2024-03-25T02:19:51;5.50;99.90
52471;DHT22;38382;53.160;7.026;2024-03-25T02:22:17;6.30;99.90
52471;DHT22;38382;53.160;7.026;2024-03-25T02:24:45;5.20;99.90
52471;DHT22;38382;53.160;7.026;2024-03-25T02:27:12;6.00;99.90
52471;DHT22;38382;53.160;7.026;2024-03-25T02:29:41;5.20;99.90
52471;DHT22;38382;53.160;7.026;2024-03-25T02:32:10;5.20;99.90
52471;DHT22;38382;53.160;7.026;2024-03-25T02:34:49;5.30;99.90
52471;DHT22;38382;53.160;7.026;2024-03-25T02:37:15;5.20;99.90
52471;DHT22;38382;53.160;7.026;2024-03-25T02:39:41;5.30;99.90
52471;DHT22;38382;53.160;7.026;2024-03-25T02:42:07;5.30;99.90
52471;DHT22;38382;53.160;7.026;2024-03-25T02:44:33;5.20;99.90
52471;DHT22;38382;53.160;7.026;2024-03-25T02:46:59;5.60;99.90
52471;DHT22;38382;53.160;7.026;2024-03-25T02:49:25;5.20;99.90
52471;DHT22;38382;53.160;7.026;2024-03-25T02:51:51;5.40;99.90
52471;DHT22;38382;53.160;7.026;2024-03-25T02:54:17;5.60;99.90
52471;DHT22;38382;53.160;7.026;2024-03-25T02:56:43;5.20;99.90
52471;DHT22;38382;53.160;7.026;2024-03-25T02:59:09;5.00;99.90
52471;DHT22;38382;53.160;7.026;2024-03-25T03:01:35;5.50;99.90
52471;DHT22;38382;53.160;7.026;2024-03-25T03:04:01;5.10;99.90
52471;DHT22;38382;53.160;7.026;2024-03-25T03:06:26;5.00;99.90
52471;DHT22;38382;53.160;7.026;2024-03-25T03:08:52;5.50;99.90
52471;DHT22;38382;53.160;7.026;2024-03-25T03:11:18;5.00;99.90
52471;DHT22;38382;53.160;7.026;2024-03-25T03:13:43;5.10;99.90
52471;DHT22;38382;53.160;7.026;2024-03-25T03:16:09;5.10;99.90
52471;DHT22;38382;53.160;7.026;2024-03-25T03:18:36;5.80;99.90
52471;DHT22;38382;53.160;7.026;2024-03-25T03:21:01;5.10;99.90
52471;DHT22;38382;53.160;7.026;2024-03-25T03:23:28;5.10;99.90
52471;DHT22;38382;53.160;7.026;2024-03-25T03:25:54;5.20;99.90
52471;DHT22;38382;53.160;7.026;2024-03-25T03:28:20;5.10;99.90
52471;DHT22;38382;53.160;7.026;2024-03-25T03:30:46;5.10;99.90
52471;DHT22;38382;53.160;7.026;2024-03-25T03:33:12;5.10;99.90
52471;DHT22;38382;53.160;7.026;2024-03-25T03:35:38;5.10;99.90
52471;DHT22;38382;53.160;7.026;2024-03-25T03:38:04;5.10;99.90
52471;DHT22;38382;53.160;7.026;2024-03-25T03:40:31;5.10;99.90
52471;DHT22;38382;53.160;7.026;2024-03-25T03:42:57;5.10;99.90
52471;DHT22;38382;53.160;7.026;2024-03-25T03:45:24;5.10;99.90
52471;DHT22;38382;53.160;7.026;2024-03-25T03:47:50;5.10;99.90
52471;DHT22;38382;53.160;7.026;2024-03-25T03:50:16;5.00;99.90
52471;DHT22;38382;53.160;7.026;2024-03-25T03:52:42;5.00;99.90
52471;DHT22;38382;53.160;7.026;2024-03-25T03:55:08;6.10;99.90
52471;DHT22;38382;53.160;7.026;2024-03-25T03:57:34;5.20;99.90
52471;DHT22;38382;53.160;7.026;2024-03-25T04:00:00;5.00;99.90
52471;DHT22;38382;53.160;7.026;2024-03-25T04:02:29;5.00;99.90
52471;DHT22;38382;53.160;7.026;2024-03-25T04:04:54;5.00;99.90
52471;DHT22;38382;53.160;7.026;2024-03-25T04:07:20;5.00;99.90
52471;DHT22;38382;53.160;7.026;2024-03-25T04:09:53;5.80;99.90
52471;DHT22;38382;53.160;7.026;2024-03-25T04:12:19;5.00;99.90
52471;DHT22;38382;53.160;7.026;2024-03-25T04:14:47;5.60;99.90
52471;DHT22;38382;53.160;7.026;2024-03-25T04:17:14;5.10;99.90
52471;DHT22;38382;53.160;7.026;2024-03-25T04:19:41;5.10;99.90
52471;DHT22;38382;53.160;7.026;2024-03-25T04:22:07;5.10;99.90
52471;DHT22;38382;53.160;7.026;2024-03-25T04:24:32;6.10;99.90
52471;DHT22;38382;53.160;7.026;2024-03-25T04:27:00;5.60;99.90
52471;DHT22;38382;53.160;7.026;2024-03-25T04:29:25;5.20;99.90
52471;DHT22;38382;53.160;7.026;2024-03-25T04:31:51;5.20;99.90
52471;DHT22;38382;53.160;7.026;2024-03-25T04:34:17;5.20;99.90
52471;DHT22;38382;53.160;7.026;2024-03-25T04:36:42;5.40;99.90
52471;DHT22;38382;53.160;7.026;2024-03-25T04:39:08;6.10;99.90
52471;DHT22;38382;53.160;7.026;2024-03-25T04:41:34;5.50;99.90
52471;DHT22;38382;53.160;7.026;2024-03-25T04:43:59;5.10;99.90
52471;DHT22;38382;53.160;7.026;2024-03-25T04:46:25;5.10;99.90
52471;DHT22;38382;53.160;7.026;2024-03-25T04:48:51;5.40;99.90
52471;DHT22;38382;53.160;7.026;2024-03-25T04:51:16;5.00;99.90
52471;DHT22;38382;53.160;7.026;2024-03-25T04:53:42;5.10;99.90
52471;DHT22;38382;53.160;7.026;2024-03-25T04:56:08;5.00;99.90
52471;DHT22;38382;53.160;7.026;2024-03-25T04:58:33;6.00;99.90
52471;DHT22;38382;53.160;7.026;2024-03-25T05:00:59;5.00;99.90
52471;DHT22;38382;53.160;7.026;2024-03-25T05:03:24;5.40;99.90
52471;DHT22;38382;53.160;7.026;2024-03-25T05:05:50;5.10;99.90
52471;DHT22;38382;53.160;7.026;2024-03-25T05:08:16;4.90;99.90
52471;DHT22;38382;53.160;7.026;2024-03-25T05:10:42;5.70;99.90
52471;DHT22;38382;53.160;7.026;2024-03-25T05:13:07;5.00;99.90
52471;DHT22;38382;53.160;7.026;2024-03-25T05:15:33;4.90;99.90
52471;DHT22;38382;53.160;7.026;2024-03-25T05:17:59;5.90;99.90
52471;DHT22;38382;53.160;7.026;2024-03-25T05:20:24;5.50;99.90
52471;DHT22;38382;53.160;7.026;2024-03-25T05:22:52;4.90;99.90
52471;DHT22;38382;53.160;7.026;2024-03-25T05:25:17;5.60;99.90
52471;DHT22;38382;53.160;7.026;2024-03-25T05:27:43;6.20;99.90
52471;DHT22;38382;53.160;7.026;2024-03-25T05:30:09;4.90;99.90
52471;DHT22;38382;53.160;7.026;2024-03-25T05:32:35;4.80;99.90
52471;DHT22;38382;53.160;7.026;2024-03-25T05:35:01;4.80;99.90
52471;DHT22;38382;53.160;7.026;2024-03-25T05:37:26;5.90;99.90
52471;DHT22;38382;53.160;7.026;2024-03-25T05:39:52;4.90;99.90
52471;DHT22;38382;53.160;7.026;2024-03-25T05:44:49;4.90;99.90
52471;DHT22;38382;53.160;7.026;2024-03-25T05:47:15;4.90;99.90
52471;DHT22;38382;53.160;7.026;2024-03-25T05:49:41;4.90;99.90
52471;DHT22;38382;53.160;7.026;2024-03-25T05:52:06;6.00;99.90
52471;DHT22;38382;53.160;7.026;2024-03-25T05:54:32;6.10;99.90
52471;DHT22;38382;53.160;7.026;2024-03-25T05:56:58;5.30;99.90
52471;DHT22;38382;53.160;7.026;2024-03-25T05:59:24;5.00;99.90
52471;DHT22;38382;53.160;7.026;2024-03-25T06:01:49;5.00;99.90
52471;DHT22;38382;53.160;7.026;2024-03-25T06:04:15;4.90;99.90
52471;DHT22;38382;53.160;7.026;2024-03-25T06:06:41;4.90;99.90
52471;DHT22;38382;53.160;7.026;2024-03-25T06:09:06;4.90;99.90
52471;DHT22;38382;53.160;7.026;2024-03-25T06:11:33;5.90;99.90
52471;DHT22;38382;53.160;7.026;2024-03-25T06:13:59;4.80;99.90
52471;DHT22;38382;53.160;7.026;2024-03-25T06:16:24;5.00;99.90
52471;DHT22;38382;53.160;7.026;2024-03-25T06:18:50;5.80;99.90
52471;DHT22;38382;53.160;7.026;2024-03-25T06:21:16;4.80;99.90
52471;DHT22;38382;53.160;7.026;2024-03-25T06:23:42;4.80;99.90
52471;DHT22;38382;53.160;7.026;2024-03-25T06:26:07;4.80;99.90
52471;DHT22;38382;53.160;7.026;2024-03-25T06:28:33;4.90;99.90
52471;DHT22;38382;53.160;7.026;2024-03-25T06:30:59;5.60;99.90
52471;DHT22;38382;53.160;7.026;2024-03-25T06:33:43;5.20;99.90
52471;DHT22;38382;53.160;7.026;2024-03-25T06:36:27;5.70;99.90
52471;DHT22;38382;53.160;7.026;2024-03-25T06:38:53;5.30;99.90
52471;DHT22;38382;53.160;7.026;2024-03-25T06:41:18;5.30;99.90
52471;DHT22;38382;53.160;7.026;2024-03-25T06:43:44;5.90;99.90
52471;DHT22;38382;53.160;7.026;2024-03-25T06:46:10;5.60;99.90
52471;DHT22;38382;53.160;7.026;2024-03-25T06:48:35;5.50;99.90
52471;DHT22;38382;53.160;7.026;2024-03-25T06:51:02;5.50;99.90
52471;DHT22;38382;53.160;7.026;2024-03-25T06:53:31;5.60;99.90
52471;DHT22;38382;53.160;7.026;2024-03-25T06:58:24;5.60;99.90
52471;DHT22;38382;53.160;7.026;2024-03-25T07:00:50;5.70;99.90
52471;DHT22;38382;53.160;7.026;2024-03-25T07:03:20;6.10;99.90
52471;DHT22;38382;53.160;7.026;2024-03-25T07:05:47;6.00;99.90
52471;DHT22;38382;53.160;7.026;2024-03-25T07:08:13;5.90;99.90
52471;DHT22;38382;53.160;7.026;2024-03-25T07:10:41;5.90;99.90
52471;DHT22;38382;53.160;7.026;2024-03-25T07:13:07;6.00;99.90
52471;DHT22;38382;53.160;7.026;2024-03-25T07:15:32;5.90;99.90
52471;DHT22;38382;53.160;7.026;2024-03-25T07:17:58;6.20;99.90
52471;DHT22;38382;53.160;7.026;2024-03-25T07:20:24;6.20;99.90
52471;DHT22;38382;53.160;7.026;2024-03-25T07:22:50;6.40;99.90
52471;DHT22;38382;53.160;7.026;2024-03-25T07:25:15;6.30;99.90
52471;DHT22;38382;53.160;7.026;2024-03-25T07:27:41;6.30;99.90
52471;DHT22;38382;53.160;7.026;2024-03-25T07:30:07;6.30;99.90
52471;DHT22;38382;53.160;7.026;2024-03-25T07:32:34;6.40;99.90
52471;DHT22;38382;53.160;7.026;2024-03-25T07:35:00;6.70;99.90
52471;DHT22;38382;53.160;7.026;2024-03-25T07:37:26;6.70;99.90
52471;DHT22;38382;53.160;7.026;2024-03-25T07:39:52;6.80;99.90
52471;DHT22;38382;53.160;7.026;2024-03-25T07:42:18;6.90;99.90
52471;DHT22;38382;53.160;7.026;2024-03-25T07:44:44;7.00;99.90
52471;DHT22;38382;53.160;7.026;2024-03-25T07:47:10;7.20;99.90
52471;DHT22;38382;53.160;7.026;2024-03-25T07:49:36;7.30;99.90
52471;DHT22;38382;53.160;7.026;2024-03-25T07:52:02;7.30;99.90
52471;DHT22;38382;53.160;7.026;2024-03-25T07:54:28;7.20;99.90
52471;DHT22;38382;53.160;7.026;2024-03-25T07:56:53;7.20;99.90
52471;DHT22;38382;53.160;7.026;2024-03-25T07:59:19;7.40;99.90
52471;DHT22;38382;53.160;7.026;2024-03-25T08:01:45;7.40;99.90
52471;DHT22;38382;53.160;7.026;2024-03-25T08:04:11;7.60;99.90
52471;DHT22;38382;53.160;7.026;2024-03-25T08:06:36;7.80;99.90
52471;DHT22;38382;53.160;7.026;2024-03-25T08:09:02;8.00;99.90
52471;DHT22;38382;53.160;7.026;2024-03-25T08:11:34;8.10;99.90
52471;DHT22;38382;53.160;7.026;2024-03-25T08:14:00;8.20;99.90
52471;DHT22;38382;53.160;7.026;2024-03-25T08:16:25;8.40;99.90
52471;DHT22;38382;53.160;7.026;2024-03-25T08:18:51;8.60;99.90
52471;DHT22;38382;53.160;7.026;2024-03-25T08:21:17;8.20;99.90
52471;DHT22;38382;53.160;7.026;2024-03-25T08:23:46;8.20;99.90
52471;DHT22;38382;53.160;7.026;2024-03-25T08:26:12;8.20;99.90
52471;DHT22;38382;53.160;7.026;2024-03-25T08:28:38;8.10;99.90
52471;DHT22;38382;53.160;7.026;2024-03-25T08:31:04;7.90;99.90
52471;DHT22;38382;53.160;7.026;2024-03-25T08:33:29;7.90;99.90
52471;DHT22;38382;53.160;7.026;2024-03-25T08:35:56;8.10;99.90
52471;DHT22;38382;53.160;7.026;2024-03-25T08:38:21;8.00;99.90
52471;DHT22;38382;53.160;7.026;2024-03-25T08:40:47;8.10;99.90
52471;DHT22;38382;53.160;7.026;2024-03-25T08:43:13;8.10;99.90
52471;DHT22;38382;53.160;7.026;2024-03-25T08:45:38;8.20;99.90
52471;DHT22;38382;53.160;7.026;2024-03-25T08:48:06;8.30;99.90
52471;DHT22;38382;53.160;7.026;2024-03-25T08:50:32;8.40;99.90
52471;DHT22;38382;53.160;7.026;2024-03-25T08:52:58;8.50;99.90
52471;DHT22;38382;53.160;7.026;2024-03-25T08:55:24;8.50;99.90
52471;DHT22;38382;53.160;7.026;2024-03-25T08:57:49;8.50;99.90
52471;DHT22;38382;53.160;7.026;2024-03-25T09:00:17;8.60;99.90
52471;DHT22;38382;53.160;7.026;2024-03-25T09:02:43;8.70;99.90
52471;DHT22;38382;53.160;7.026;2024-03-25T09:05:09;9.00;99.90
52471;DHT22;38382;53.160;7.026;2024-03-25T09:07:35;9.30;99.90
52471;DHT22;38382;53.160;7.026;2024-03-25T09:10:01;9.60;99.90
52471;DHT22;38382;53.160;7.026;2024-03-25T09:12:46;9.80;99.90
52471;DHT22;38382;53.160;7.026;2024-03-25T09:15:12;10.20;99.90
52471;DHT22;38382;53.160;7.026;2024-03-25T09:17:38;10.30;99.90
52471;DHT22;38382;53.160;7.026;2024-03-25T09:20:05;10.30;99.90
52471;DHT22;38382;53.160;7.026;2024-03-25T09:22:44;9.90;99.90
52471;DHT22;38382;53.160;7.026;2024-03-25T09:25:10;9.80;99.90
52471;DHT22;38382;53.160;7.026;2024-03-25T09:27:36;9.90;99.90
52471;DHT22;38382;53.160;7.026;2024-03-25T09:30:03;10.30;99.90
52471;DHT22;38382;53.160;7.026;2024-03-25T09:32:29;10.60;99.90
52471;DHT22;38382;53.160;7.026;2024-03-25T09:34:58;11.10;99.90
52471;DHT22;38382;53.160;7.026;2024-03-25T09:37:24;11.40;99.90
52471;DHT22;38382;53.160;7.026;2024-03-25T09:39:49;11.50;99.90
52471;DHT22;38382;53.160;7.026;2024-03-25T09:42:22;11.70;99.90
52471;DHT22;38382;53.160;7.026;2024-03-25T09:44:51;12.00;99.90
52471;DHT22;38382;53.160;7.026;2024-03-25T09:47:17;12.30;99.90
52471;DHT22;38382;53.160;7.026;2024-03-25T09:49:43;12.20;99.90
52471;DHT22;38382;53.160;7.026;2024-03-25T09:52:10;12.00;99.90
52471;DHT22;38382;53.160;7.026;2024-03-25T09:54:36;11.80;99.90
52471;DHT22;38382;53.160;7.026;2024-03-25T09:57:02;11.40;99.90
52471;DHT22;38382;53.160;7.026;2024-03-25T09:59:29;11.00;99.90
52471;DHT22;38382;53.160;7.026;2024-03-25T10:01:56;10.80;99.90
52471;DHT22;38382;53.160;7.026;2024-03-25T10:04:23;10.70;99.90
52471;DHT22;38382;53.160;7.026;2024-03-25T10:06:49;10.50;99.90
52471;DHT22;38382;53.160;7.026;2024-03-25T10:09:22;10.40;99.90
52471;DHT22;38382;53.160;7.026;2024-03-25T10:11:51;10.10;99.90
52471;DHT22;38382;53.160;7.026;2024-03-25T10:14:17;10.20;99.90
52471;DHT22;38382;53.160;7.026;2024-03-25T10:16:44;9.90;99.90
52471;DHT22;38382;53.160;7.026;2024-03-25T10:19:10;9.60;99.90
52471;DHT22;38382;53.160;7.026;2024-03-25T10:21:36;9.30;99.90
52471;DHT22;38382;53.160;7.026;2024-03-25T10:24:04;9.20;99.90
52471;DHT22;38382;53.160;7.026;2024-03-25T10:26:31;9.20;99.90
52471;DHT22;38382;53.160;7.026;2024-03-25T10:29:05;9.10;99.90
52471;DHT22;38382;53.160;7.026;2024-03-25T10:31:36;9.30;99.90
52471;DHT22;38382;53.160;7.026;2024-03-25T10:34:02;9.60;99.90
52471;DHT22;38382;53.160;7.026;2024-03-25T10:36:28;9.90;99.90
52471;DHT22;38382;53.160;7.026;2024-03-25T10:38:56;9.90;99.90
52471;DHT22;38382;53.160;7.026;2024-03-25T10:41:23;9.90;99.90
52471;DHT22;38382;53.160;7.026;2024-03-25T10:43:52;10.20;99.90
52471;DHT22;38382;53.160;7.026;2024-03-25T10:46:20;10.50;99.90
52471;DHT22;38382;53.160;7.026;2024-03-25T10:49:02;10.80;99.90
52471;DHT22;38382;53.160;7.026;2024-03-25T10:51:30;11.00;99.90
52471;DHT22;38382;53.160;7.026;2024-03-25T10:53:58;11.30;99.90
52471;DHT22;38382;53.160;7.026;2024-03-25T10:56:24;11.70;99.90
52471;DHT22;38382;53.160;7.026;2024-03-25T10:58:50;12.10;99.90
52471;DHT22;38382;53.160;7.026;2024-03-25T11:01:18;12.20;99.90
52471;DHT22;38382;53.160;7.026;2024-03-25T11:03:48;12.30;99.90
52471;DHT22;38382;53.160;7.026;2024-03-25T11:06:14;12.30;99.90
52471;DHT22;38382;53.160;7.026;2024-03-25T11:08:40;12.60;99.90
52471;DHT22;38382;53.160;7.026;2024-03-25T11:11:07;12.80;99.90
52471;DHT22;38382;53.160;7.026;2024-03-25T11:13:33;13.10;99.90
52471;DHT22;38382;53.160;7.026;2024-03-25T11:16:00;13.30;99.90
52471;DHT22;38382;53.160;7.026;2024-03-25T11:18:26;13.80;99.90
52471;DHT22;38382;53.160;7.026;2024-03-25T11:21:07;13.60;99.90
52471;DHT22;38382;53.160;7.026;2024-03-25T11:23:40;13.70;99.90
52471;DHT22;38382;53.160;7.026;2024-03-25T11:26:20;13.90;99.90
52471;DHT22;38382;53.160;7.026;2024-03-25T11:28:46;14.10;99.90
52471;DHT22;38382;53.160;7.026;2024-03-25T11:31:12;14.40;99.90
52471;DHT22;38382;53.160;7.026;2024-03-25T11:33:39;14.40;99.60
52471;DHT22;38382;53.160;7.026;2024-03-25T11:36:05;14.10;99.90
52471;DHT22;38382;53.160;7.026;2024-03-25T11:38:31;13.70;99.90
52471;DHT22;38382;53.160;7.026;2024-03-25T11:40:57;13.30;99.90
52471;DHT22;38382;53.160;7.026;2024-03-25T11:43:23;12.90;99.90
52471;DHT22;38382;53.160;7.026;2024-03-25T11:45:49;12.30;99.90
52471;DHT22;38382;53.160;7.026;2024-03-25T11:48:15;12.10;99.90
52471;DHT22;38382;53.160;7.026;2024-03-25T11:50:44;11.80;99.90
52471;DHT22;38382;53.160;7.026;2024-03-25T11:53:10;11.40;99.90
52471;DHT22;38382;53.160;7.026;2024-03-25T11:55:35;11.10;99.90
52471;DHT22;38382;53.160;7.026;2024-03-25T11:58:01;10.90;99.90
52471;DHT22;38382;53.160;7.026;2024-03-25T12:00:27;10.80;99.90
52471;DHT22;38382;53.160;7.026;2024-03-25T12:02:54;10.50;99.90
52471;DHT22;38382;53.160;7.026;2024-03-25T12:05:20;10.30;99.90
52471;DHT22;38382;53.160;7.026;2024-03-25T12:07:46;10.10;99.90
52471;DHT22;38382;53.160;7.026;2024-03-25T12:10:12;10.10;99.90
52471;DHT22;38382;53.160;7.026;2024-03-25T12:12:56;10.10;99.90
52471;DHT22;38382;53.160;7.026;2024-03-25T12:15:22;10.40;99.90
52471;DHT22;38382;53.160;7.026;2024-03-25T12:17:48;10.50;99.90
52471;DHT22;38382;53.160;7.026;2024-03-25T12:20:14;10.90;99.90
52471;DHT22;38382;53.160;7.026;2024-03-25T12:22:40;11.10;99.90
52471;DHT22;38382;53.160;7.026;2024-03-25T12:25:07;11.40;99.90
52471;DHT22;38382;53.160;7.026;2024-03-25T12:27:36;11.60;99.90
52471;DHT22;38382;53.160;7.026;2024-03-25T12:30:09;11.80;99.90
52471;DHT22;38382;53.160;7.026;2024-03-25T12:32:40;12.20;99.90
52471;DHT22;38382;53.160;7.026;2024-03-25T12:35:11;12.60;99.90
52471;DHT22;38382;53.160;7.026;2024-03-25T12:37:41;13.20;99.90
52471;DHT22;38382;53.160;7.026;2024-03-25T12:40:28;13.70;99.90
52471;DHT22;38382;53.160;7.026;2024-03-25T12:42:55;14.10;99.90
52471;DHT22;38382;53.160;7.026;2024-03-25T12:45:22;14.30;99.90
52471;DHT22;38382;53.160;7.026;2024-03-25T12:47:51;14.90;99.90
52471;DHT22;38382;53.160;7.026;2024-03-25T12:50:17;15.30;99.90
52471;DHT22;38382;53.160;7.026;2024-03-25T12:52:44;15.60;99.90
52471;DHT22;38382;53.160;7.026;2024-03-25T12:55:10;16.00;99.90
52471;DHT22;38382;53.160;7.026;2024-03-25T12:57:36;16.20;99.90
52471;DHT22;38382;53.160;7.026;2024-03-25T13:00:02;16.50;99.90
52471;DHT22;38382;53.160;7.026;2024-03-25T13:02:30;16.40;98.10
52471;DHT22;38382;53.160;7.026;2024-03-25T13:05:02;16.60;99.90
52471;DHT22;38382;53.160;7.026;2024-03-25T13:07:30;16.50;99.30
52471;DHT22;38382;53.160;7.026;2024-03-25T13:09:55;16.10;96.60
52471;DHT22;38382;53.160;7.026;2024-03-25T13:12:21;16.00;96.70
52471;DHT22;38382;53.160;7.026;2024-03-25T13:14:47;15.80;98.20
52471;DHT22;38382;53.160;7.026;2024-03-25T13:17:12;15.90;99.90
52471;DHT22;38382;53.160;7.026;2024-03-25T13:19:38;16.00;99.90
52471;DHT22;38382;53.160;7.026;2024-03-25T13:22:04;16.10;98.60
52471;DHT22;38382;53.160;7.026;2024-03-25T13:24:31;15.80;96.80
52471;DHT22;38382;53.160;7.026;2024-03-25T13:26:57;15.60;98.30
52471;DHT22;38382;53.160;7.026;2024-03-25T13:29:22;15.30;97.50
52471;DHT22;38382;53.160;7.026;2024-03-25T13:31:48;15.20;99.90
52471;DHT22;38382;53.160;7.026;2024-03-25T13:34:14;14.90;97.80
52471;DHT22;38382;53.160;7.026;2024-03-25T13:36:39;14.70;99.50
52471;DHT22;38382;53.160;7.026;2024-03-25T13:39:05;14.70;99.90
52471;DHT22;38382;53.160;7.026;2024-03-25T13:41:31;14.60;99.90
52471;DHT22;38382;53.160;7.026;2024-03-25T13:43:57;14.50;99.90
52471;DHT22;38382;53.160;7.026;2024-03-25T13:46:23;14.20;99.90
52471;DHT22;38382;53.160;7.026;2024-03-25T13:48:48;14.00;99.90
52471;DHT22;38382;53.160;7.026;2024-03-25T13:51:14;14.00;99.90
52471;DHT22;38382;53.160;7.026;2024-03-25T13:53:40;13.70;99.90
52471;DHT22;38382;53.160;7.026;2024-03-25T13:56:06;13.60;99.90
52471;DHT22;38382;53.160;7.026;2024-03-25T13:58:32;13.60;99.90
52471;DHT22;38382;53.160;7.026;2024-03-25T14:00:57;14.00;99.90
52471;DHT22;38382;53.160;7.026;2024-03-25T14:03:23;14.40;99.90
52471;DHT22;38382;53.160;7.026;2024-03-25T14:05:49;14.70;99.90
52471;DHT22;38382;53.160;7.026;2024-03-25T14:08:14;14.80;99.90
52471;DHT22;38382;53.160;7.026;2024-03-25T14:10:42;15.00;99.90
52471;DHT22;38382;53.160;7.026;2024-03-25T14:13:08;15.00;99.90
52471;DHT22;38382;53.160;7.026;2024-03-25T14:15:33;15.10;99.90
52471;DHT22;38382;53.160;7.026;2024-03-25T14:17:59;15.20;99.90
52471;DHT22;38382;53.160;7.026;2024-03-25T14:20:25;15.40;99.90
52471;DHT22;38382;53.160;7.026;2024-03-25T14:22:50;15.40;99.90
52471;DHT22;38382;53.160;7.026;2024-03-25T14:25:16;15.50;99.90
52471;DHT22;38382;53.160;7.026;2024-03-25T14:27:42;15.50;99.90
52471;DHT22;38382;53.160;7.026;2024-03-25T14:30:08;15.90;99.90
52471;DHT22;38382;53.160;7.026;2024-03-25T14:32:36;16.20;99.90
52471;DHT22;38382;53.160;7.026;2024-03-25T14:35:04;16.20;99.90
52471;DHT22;38382;53.160;7.026;2024-03-25T14:37:32;16.60;99.90
52471;DHT22;38382;53.160;7.026;2024-03-25T14:39:58;17.60;99.90
52471;DHT22;38382;53.160;7.026;2024-03-25T14:42:24;19.20;98.70
52471;DHT22;38382;53.160;7.026;2024-03-25T14:44:50;20.80;96.50
52471;DHT22;38382;53.160;7.026;2024-03-25T14:47:16;22.20;93.10
52471;DHT22;38382;53.160;7.026;2024-03-25T14:49:42;23.20;90.40
52471;DHT22;38382;53.160;7.026;2024-03-25T14:52:07;24.20;86.60
52471;DHT22;38382;53.160;7.026;2024-03-25T14:54:34;25.20;79.90
52471;DHT22;38382;53.160;7.026;2024-03-25T14:57:00;25.80;75.70
52471;DHT22;38382;53.160;7.026;2024-03-25T14:59:29;25.90;68.90
52471;DHT22;38382;53.160;7.026;2024-03-25T15:02:00;26.30;66.80
52471;DHT22;38382;53.160;7.026;2024-03-25T15:04:27;26.50;66.40
52471;DHT22;38382;53.160;7.026;2024-03-25T15:06:53;26.70;64.40
52471;DHT22;38382;53.160;7.026;2024-03-25T15:09:19;27.00;64.70
52471;DHT22;38382;53.160;7.026;2024-03-25T15:11:45;27.50;62.10
52471;DHT22;38382;53.160;7.026;2024-03-25T15:14:11;27.10;61.20
52471;DHT22;38382;53.160;7.026;2024-03-25T15:16:37;26.80;60.60
52471;DHT22;38382;53.160;7.026;2024-03-25T15:19:03;26.50;59.90
52471;DHT22;38382;53.160;7.026;2024-03-25T15:21:28;25.90;61.30
52471;DHT22;38382;53.160;7.026;2024-03-25T15:23:54;24.80;61.60
52471;DHT22;38382;53.160;7.026;2024-03-25T15:26:21;23.40;62.90
52471;DHT22;38382;53.160;7.026;2024-03-25T15:28:48;22.10;63.50
52471;DHT22;38382;53.160;7.026;2024-03-25T15:31:13;21.10;66.70
52471;DHT22;38382;53.160;7.026;2024-03-25T15:33:39;20.70;68.90
52471;DHT22;38382;53.160;7.026;2024-03-25T15:36:05;21.00;68.60
52471;DHT22;38382;53.160;7.026;2024-03-25T15:38:31;21.70;67.30
52471;DHT22;38382;53.160;7.026;2024-03-25T15:40:56;22.30;67.10